sensor_id;sensor_type;location;lat;lon;timestamp;P1;durP1;ratioP1;P2;durP2;ratioP2
38779;SDS011;29273;49.962;9.768;2023-10-08T00:01:28;3.30;;;1.50;;
38779;SDS011;29273;49.962;9.768;2023-10-08T00:03:58;2.88;;;1.70;;
38779;SDS011;29273;49.962;9.768;2023-10-08T00:06:25;2.70;;;1.73;;
38779;SDS011;29273;49.962;9.768;2023-10-08T00:08:53;2.70;;;1.77;;
38779;SDS011;29273;49.962;9.768;2023-10-08T00:11:25;2.85;;;1.75;;
38779;SDS011;29273;49.962;9.768;2023-10-08T00:13:56;2.65;;;1.60;;
38779;SDS011;29273;49.962;9.768;2023-10-08T00:16:22;2.15;;;1.33;;
38779;SDS011;29273;49.962;9.768;2023-10-08T00:18:47;3.28;;;1.70;;
38779;SDS011;29273;49.962;9.768;2023-10-08T00:21:19;2.20;;;1.25;;
38779;SDS011;29273;49.962;9.768;2023-10-08T00:23:58;3.00;;;1.80;;
38779;SDS011;29273;49.962;9.768;2023-10-08T00:26:23;3.53;;;1.65;;
38779;SDS011;29273;49.962;9.768;2023-10-08T00:28:56;2.38;;;1.65;;
38779;SDS011;29273;49.962;9.768;2023-10-08T00:31:22;2.55;;;1.50;;
38779;SDS011;29273;49.962;9.768;2023-10-08T00:34:03;2.83;;;1.75;;
38779;SDS011;29273;49.962;9.768;2023-10-08T00:36:36;3.65;;;1.60;;
38779;SDS011;29273;49.962;9.768;2023-10-08T00:39:03;3.75;;;1.50;;
38779;SDS011;29273;49.962;9.768;2023-10-08T00:41:33;2.17;;;1.33;;
38779;SDS011;29273;49.962;9.768;2023-10-08T00:43:59;2.13;;;1.58;;
38779;SDS011;29273;49.962;9.768;2023-10-08T00:46:25;2.60;;;1.58;;
38779;SDS011;29273;49.962;9.768;2023-10-08T00:48:56;2.88;;;1.85;;
38779;SDS011;29273;49.962;9.768;2023-10-08T00:51:24;2.75;;;1.90;;
38779;SDS011;29273;49.962;9.768;2023-10-08T00:53:56;3.40;;;1.50;;
38779;SDS011;29273;49.962;9.768;2023-10-08T00:56:31;2.55;;;1.58;;
38779;SDS011;29273;49.962;9.768;2023-10-08T00:59:16;2.83;;;1.73;;
38779;SDS011;29273;49.962;9.768;2023-10-08T01:01:42;2.90;;;1.67;;
38779;SDS011;29273;49.962;9.768;2023-10-08T01:04:16;3.58;;;1.95;;
38779;SDS011;29273;49.962;9.768;2023-10-08T01:06:52;2.92;;;1.58;;
38779;SDS011;29273;49.962;9.768;2023-10-08T01:09:22;3.38;;;1.73;;
38779;SDS011;29273;49.962;9.768;2023-10-08T01:14:43;3.20;;;1.52;;
38779;SDS011;29273;49.962;9.768;2023-10-08T01:17:12;4.18;;;2.08;;
38779;SDS011;29273;49.962;9.768;2023-10-08T01:19:44;3.22;;;1.58;;
38779;SDS011;29273;49.962;9.768;2023-10-08T01:22:16;2.38;;;1.50;;
38779;SDS011;29273;49.962;9.768;2023-10-08T01:24:47;2.38;;;1.65;;
38779;SDS011;29273;49.962;9.768;2023-10-08T01:27:14;3.33;;;1.70;;
38779;SDS011;29273;49.962;9.768;2023-10-08T01:29:47;2.30;;;1.45;;
38779;SDS011;29273;49.962;9.768;2023-10-08T01:32:15;2.35;;;1.70;;
38779;SDS011;29273;49.962;9.768;2023-10-08T01:34:45;2.90;;;1.70;;
38779;SDS011;29273;49.962;9.768;2023-10-08T01:37:17;3.15;;;1.70;;
38779;SDS011;29273;49.962;9.768;2023-10-08T01:39:47;2.40;;;1.90;;
38779;SDS011;29273;49.962;9.768;2023-10-08T01:42:15;2.72;;;1.70;;
38779;SDS011;29273;49.962;9.768;2023-10-08T01:44:48;2.80;;;1.77;;
38779;SDS011;29273;49.962;9.768;2023-10-08T01:47:17;2.63;;;1.80;;
38779;SDS011;29273;49.962;9.768;2023-10-08T01:49:43;3.35;;;1.73;;
38779;SDS011;29273;49.962;9.768;2023-10-08T01:52:10;2.75;;;1.77;;
38779;SDS011;29273;49.962;9.768;2023-10-08T01:54:48;2.72;;;1.67;;
38779;SDS011;29273;49.962;9.768;2023-10-08T01:57:15;3.08;;;2.20;;
38779;SDS011;29273;49.962;9.768;2023-10-08T01:59:42;2.70;;;1.95;;
38779;SDS011;29273;49.962;9.768;2023-10-08T02:02:09;2.85;;;1.95;;
38779;SDS011;29273;49.962;9.768;2023-10-08T02:04:35;3.03;;;1.80;;
38779;SDS011;29273;49.962;9.768;2023-10-08T02:07:02;2.63;;;1.73;;
38779;SDS011;29273;49.962;9.768;2023-10-08T02:09:29;2.58;;;1.73;;
38779;SDS011;29273;49.962;9.768;2023-10-08T02:11:55;2.90;;;1.73;;
38779;SDS011;29273;49.962;9.768;2023-10-08T02:14:22;2.55;;;1.80;;
38779;SDS011;29273;49.962;9.768;2023-10-08T02:16:48;3.85;;;1.67;;
38779;SDS011;29273;49.962;9.768;2023-10-08T02:19:15;2.72;;;1.80;;
38779;SDS011;29273;49.962;9.768;2023-10-08T02:21:46;2.42;;;1.77;;
38779;SDS011;29273;49.962;9.768;2023-10-08T02:24:12;2.72;;;1.48;;
38779;SDS011;29273;49.962;9.768;2023-10-08T02:26:38;3.45;;;1.63;;
38779;SDS011;29273;49.962;9.768;2023-10-08T02:29:04;3.20;;;1.80;;
38779;SDS011;29273;49.962;9.768;2023-10-08T02:31:39;2.63;;;1.60;;
38779;SDS011;29273;49.962;9.768;2023-10-08T02:34:05;3.78;;;1.88;;
38779;SDS011;29273;49.962;9.768;2023-10-08T02:36:35;2.83;;;1.67;;
38779;SDS011;29273;49.962;9.768;2023-10-08T02:39:06;2.95;;;1.77;;
38779;SDS011;29273;49.962;9.768;2023-10-08T02:41:39;2.88;;;1.50;;
38779;SDS011;29273;49.962;9.768;2023-10-08T02:44:07;4.07;;;2.05;;
38779;SDS011;29273;49.962;9.768;2023-10-08T02:46:40;3.90;;;1.90;;
38779;SDS011;29273;49.962;9.768;2023-10-08T02:49:08;3.13;;;1.90;;
38779;SDS011;29273;49.962;9.768;2023-10-08T02:51:36;3.28;;;2.05;;
38779;SDS011;29273;49.962;9.768;2023-10-08T02:54:04;2.25;;;1.75;;
38779;SDS011;29273;49.962;9.768;2023-10-08T02:56:31;2.42;;;1.70;;
38779;SDS011;29273;49.962;9.768;2023-10-08T02:58:58;2.83;;;2.00;;
38779;SDS011;29273;49.962;9.768;2023-10-08T03:01:25;2.25;;;1.75;;
38779;SDS011;29273;49.962;9.768;2023-10-08T03:03:53;2.65;;;1.60;;
38779;SDS011;29273;49.962;9.768;2023-10-08T03:06:28;2.35;;;1.50;;
38779;SDS011;29273;49.962;9.768;2023-10-08T03:08:58;2.58;;;1.60;;
38779;SDS011;29273;49.962;9.768;2023-10-08T03:11:29;2.53;;;1.83;;
38779;SDS011;29273;49.962;9.768;2023-10-08T03:13:56;4.00;;;2.00;;
38779;SDS011;29273;49.962;9.768;2023-10-08T03:16:22;2.25;;;1.60;;
38779;SDS011;29273;49.962;9.768;2023-10-08T03:18:53;2.53;;;1.50;;
38779;SDS011;29273;49.962;9.768;2023-10-08T03:21:22;3.40;;;1.90;;
38779;SDS011;29273;49.962;9.768;2023-10-08T03:24:03;2.35;;;1.70;;
38779;SDS011;29273;49.962;9.768;2023-10-08T03:26:38;2.47;;;1.70;;
38779;SDS011;29273;49.962;9.768;2023-10-08T03:29:10;3.83;;;2.00;;
38779;SDS011;29273;49.962;9.768;2023-10-08T03:31:43;4.47;;;2.00;;
38779;SDS011;29273;49.962;9.768;2023-10-08T03:34:20;3.13;;;1.63;;
38779;SDS011;29273;49.962;9.768;2023-10-08T03:36:52;3.15;;;1.95;;
38779;SDS011;29273;49.962;9.768;2023-10-08T03:39:25;2.60;;;1.67;;
38779;SDS011;29273;49.962;9.768;2023-10-08T03:42:10;2.90;;;1.77;;
38779;SDS011;29273;49.962;9.768;2023-10-08T03:44:38;5.95;;;1.83;;
38779;SDS011;29273;49.962;9.768;2023-10-08T03:47:07;3.92;;;1.92;;
38779;SDS011;29273;49.962;9.768;2023-10-08T03:49:36;3.22;;;2.03;;
38779;SDS011;29273;49.962;9.768;2023-10-08T03:52:09;3.15;;;2.17;;
38779;SDS011;29273;49.962;9.768;2023-10-08T03:54:35;3.50;;;2.13;;
38779;SDS011;29273;49.962;9.768;2023-10-08T03:57:01;3.53;;;2.35;;
38779;SDS011;29273;49.962;9.768;2023-10-08T03:59:29;2.97;;;1.92;;
38779;SDS011;29273;49.962;9.768;2023-10-08T04:01:56;4.18;;;2.75;;
38779;SDS011;29273;49.962;9.768;2023-10-08T04:04:26;3.75;;;2.13;;
38779;SDS011;29273;49.962;9.768;2023-10-08T04:07:21;3.10;;;2.10;;
38779;SDS011;29273;49.962;9.768;2023-10-08T04:09:54;4.53;;;2.33;;
38779;SDS011;29273;49.962;9.768;2023-10-08T04:15:16;3.00;;;1.65;;
38779;SDS011;29273;49.962;9.768;2023-10-08T04:17:42;3.10;;;2.00;;
38779;SDS011;29273;49.962;9.768;2023-10-08T04:20:16;3.15;;;1.70;;
38779;SDS011;29273;49.962;9.768;2023-10-08T04:23:00;2.42;;;1.70;;
38779;SDS011;29273;49.962;9.768;2023-10-08T04:25:28;2.53;;;1.50;;
38779;SDS011;29273;49.962;9.768;2023-10-08T04:27:55;2.83;;;1.70;;
38779;SDS011;29273;49.962;9.768;2023-10-08T04:30:24;3.92;;;2.08;;
38779;SDS011;29273;49.962;9.768;2023-10-08T04:33:01;2.70;;;1.80;;
38779;SDS011;29273;49.962;9.768;2023-10-08T04:35:34;2.42;;;1.45;;
38779;SDS011;29273;49.962;9.768;2023-10-08T04:38:17;3.33;;;1.88;;
38779;SDS011;29273;49.962;9.768;2023-10-08T04:40:47;2.55;;;1.65;;
38779;SDS011;29273;49.962;9.768;2023-10-08T04:43:23;3.60;;;1.90;;
38779;SDS011;29273;49.962;9.768;2023-10-08T04:48:29;3.17;;;1.70;;
38779;SDS011;29273;49.962;9.768;2023-10-08T04:50:58;2.88;;;1.73;;
38779;SDS011;29273;49.962;9.768;2023-10-08T04:53:27;3.28;;;1.58;;
38779;SDS011;29273;49.962;9.768;2023-10-08T04:56:09;3.75;;;1.73;;
38779;SDS011;29273;49.962;9.768;2023-10-08T04:58:39;3.38;;;1.92;;
38779;SDS011;29273;49.962;9.768;2023-10-08T05:01:06;2.45;;;1.70;;
38779;SDS011;29273;49.962;9.768;2023-10-08T05:03:44;3.42;;;1.55;;
38779;SDS011;29273;49.962;9.768;2023-10-08T05:06:30;2.10;;;1.55;;
38779;SDS011;29273;49.962;9.768;2023-10-08T05:09:00;2.75;;;1.80;;
38779;SDS011;29273;49.962;9.768;2023-10-08T05:11:47;2.70;;;1.88;;
38779;SDS011;29273;49.962;9.768;2023-10-08T05:14:21;3.55;;;1.98;;
38779;SDS011;29273;49.962;9.768;2023-10-08T05:17:05;3.05;;;1.75;;
38779;SDS011;29273;49.962;9.768;2023-10-08T05:19:38;3.10;;;1.80;;
38779;SDS011;29273;49.962;9.768;2023-10-08T05:22:16;2.75;;;1.90;;
38779;SDS011;29273;49.962;9.768;2023-10-08T05:24:55;3.42;;;1.88;;
38779;SDS011;29273;49.962;9.768;2023-10-08T05:27:41;3.15;;;1.92;;
38779;SDS011;29273;49.962;9.768;2023-10-08T05:30:19;2.92;;;1.63;;
38779;SDS011;29273;49.962;9.768;2023-10-08T05:33:02;3.13;;;1.80;;
38779;SDS011;29273;49.962;9.768;2023-10-08T05:35:37;2.75;;;1.80;;
38779;SDS011;29273;49.962;9.768;2023-10-08T05:38:10;2.53;;;1.52;;
38779;SDS011;29273;49.962;9.768;2023-10-08T05:40:56;2.85;;;1.83;;
38779;SDS011;29273;49.962;9.768;2023-10-08T05:43:35;2.72;;;1.77;;
38779;SDS011;29273;49.962;9.768;2023-10-08T05:46:02;4.30;;;1.98;;
38779;SDS011;29273;49.962;9.768;2023-10-08T05:48:47;3.17;;;1.63;;
38779;SDS011;29273;49.962;9.768;2023-10-08T05:51:28;2.73;;;1.57;;
38779;SDS011;29273;49.962;9.768;2023-10-08T05:54:32;2.65;;;1.80;;
38779;SDS011;29273;49.962;9.768;2023-10-08T06:02:25;2.05;;;1.50;;
38779;SDS011;29273;49.962;9.768;2023-10-08T06:05:03;2.72;;;1.88;;
38779;SDS011;29273;49.962;9.768;2023-10-08T06:07:46;2.40;;;1.80;;
38779;SDS011;29273;49.962;9.768;2023-10-08T06:10:23;2.78;;;1.67;;
38779;SDS011;29273;49.962;9.768;2023-10-08T06:15:41;3.55;;;1.70;;
38779;SDS011;29273;49.962;9.768;2023-10-08T06:18:21;2.17;;;1.60;;
38779;SDS011;29273;49.962;9.768;2023-10-08T06:20:54;2.42;;;1.67;;
38779;SDS011;29273;49.962;9.768;2023-10-08T06:23:21;3.13;;;1.65;;
38779;SDS011;29273;49.962;9.768;2023-10-08T06:25:48;2.70;;;1.85;;
38779;SDS011;29273;49.962;9.768;2023-10-08T06:28:20;3.67;;;2.00;;
38779;SDS011;29273;49.962;9.768;2023-10-08T06:30:47;2.83;;;1.67;;
38779;SDS011;29273;49.962;9.768;2023-10-08T06:33:14;3.17;;;2.00;;
38779;SDS011;29273;49.962;9.768;2023-10-08T06:35:40;3.15;;;2.00;;
38779;SDS011;29273;49.962;9.768;2023-10-08T06:38:10;3.85;;;2.00;;
38779;SDS011;29273;49.962;9.768;2023-10-08T06:40:36;3.13;;;2.10;;
38779;SDS011;29273;49.962;9.768;2023-10-08T06:43:05;2.53;;;1.88;;
38779;SDS011;29273;49.962;9.768;2023-10-08T06:45:41;3.15;;;1.80;;
38779;SDS011;29273;49.962;9.768;2023-10-08T06:48:08;2.70;;;1.85;;
38779;SDS011;29273;49.962;9.768;2023-10-08T06:50:33;3.83;;;1.90;;
38779;SDS011;29273;49.962;9.768;2023-10-08T06:53:02;2.88;;;1.60;;
38779;SDS011;29273;49.962;9.768;2023-10-08T06:55:33;3.28;;;2.10;;
38779;SDS011;29273;49.962;9.768;2023-10-08T06:58:03;3.58;;;1.98;;
38779;SDS011;29273;49.962;9.768;2023-10-08T07:00:34;3.88;;;2.10;;
38779;SDS011;29273;49.962;9.768;2023-10-08T07:03:04;3.83;;;1.95;;
38779;SDS011;29273;49.962;9.768;2023-10-08T07:05:35;2.78;;;1.73;;
38779;SDS011;29273;49.962;9.768;2023-10-08T07:08:02;3.58;;;2.03;;
38779;SDS011;29273;49.962;9.768;2023-10-08T07:10:34;2.72;;;1.90;;
38779;SDS011;29273;49.962;9.768;2023-10-08T07:13:00;3.45;;;2.00;;
38779;SDS011;29273;49.962;9.768;2023-10-08T07:15:28;3.22;;;2.00;;
38779;SDS011;29273;49.962;9.768;2023-10-08T07:17:55;3.10;;;1.83;;
38779;SDS011;29273;49.962;9.768;2023-10-08T07:20:21;4.15;;;2.20;;
38779;SDS011;29273;49.962;9.768;2023-10-08T07:22:48;2.55;;;1.65;;
38779;SDS011;29273;49.962;9.768;2023-10-08T07:25:22;3.10;;;1.90;;
38779;SDS011;29273;49.962;9.768;2023-10-08T07:27:48;2.95;;;1.75;;
38779;SDS011;29273;49.962;9.768;2023-10-08T07:30:14;3.53;;;1.85;;
38779;SDS011;29273;49.962;9.768;2023-10-08T07:32:52;3.83;;;1.70;;
38779;SDS011;29273;49.962;9.768;2023-10-08T07:35:23;3.20;;;1.80;;
38779;SDS011;29273;49.962;9.768;2023-10-08T07:37:51;3.00;;;1.90;;
38779;SDS011;29273;49.962;9.768;2023-10-08T07:40:19;4.13;;;2.33;;
38779;SDS011;29273;49.962;9.768;2023-10-08T07:42:46;4.45;;;2.55;;
38779;SDS011;29273;49.962;9.768;2023-10-08T07:45:17;3.95;;;2.55;;
38779;SDS011;29273;49.962;9.768;2023-10-08T07:47:43;4.43;;;2.75;;
38779;SDS011;29273;49.962;9.768;2023-10-08T07:50:09;3.53;;;2.50;;
38779;SDS011;29273;49.962;9.768;2023-10-08T07:52:38;3.58;;;2.10;;
38779;SDS011;29273;49.962;9.768;2023-10-08T07:55:05;2.72;;;1.90;;
38779;SDS011;29273;49.962;9.768;2023-10-08T07:57:30;2.58;;;1.63;;
38779;SDS011;29273;49.962;9.768;2023-10-08T07:59:56;2.97;;;1.77;;
38779;SDS011;29273;49.962;9.768;2023-10-08T08:02:43;3.33;;;2.13;;
38779;SDS011;29273;49.962;9.768;2023-10-08T08:05:09;3.00;;;1.80;;
38779;SDS011;29273;49.962;9.768;2023-10-08T08:07:35;3.85;;;1.83;;
38779;SDS011;29273;49.962;9.768;2023-10-08T08:10:00;2.80;;;1.85;;
38779;SDS011;29273;49.962;9.768;2023-10-08T08:12:27;4.07;;;2.13;;
38779;SDS011;29273;49.962;9.768;2023-10-08T08:14:53;2.80;;;1.98;;
38779;SDS011;29273;49.962;9.768;2023-10-08T08:17:22;2.15;;;1.55;;
38779;SDS011;29273;49.962;9.768;2023-10-08T08:19:49;2.40;;;1.80;;
38779;SDS011;29273;49.962;9.768;2023-10-08T08:22:16;4.10;;;1.85;;
38779;SDS011;29273;49.962;9.768;2023-10-08T08:24:56;3.38;;;1.90;;
38779;SDS011;29273;49.962;9.768;2023-10-08T08:27:40;4.20;;;1.90;;
38779;SDS011;29273;49.962;9.768;2023-10-08T08:30:09;3.60;;;1.83;;
38779;SDS011;29273;49.962;9.768;2023-10-08T08:32:36;2.63;;;1.90;;
38779;SDS011;29273;49.962;9.768;2023-10-08T08:35:08;2.83;;;1.90;;
38779;SDS011;29273;49.962;9.768;2023-10-08T08:37:35;3.70;;;2.13;;
38779;SDS011;29273;49.962;9.768;2023-10-08T08:40:04;4.10;;;2.20;;
38779;SDS011;29273;49.962;9.768;2023-10-08T08:42:50;4.07;;;2.13;;
38779;SDS011;29273;49.962;9.768;2023-10-08T08:45:23;2.80;;;1.88;;
38779;SDS011;29273;49.962;9.768;2023-10-08T08:47:50;2.72;;;2.00;;
38779;SDS011;29273;49.962;9.768;2023-10-08T08:50:17;3.35;;;1.98;;
38779;SDS011;29273;49.962;9.768;2023-10-08T08:52:42;2.67;;;1.67;;
38779;SDS011;29273;49.962;9.768;2023-10-08T08:55:10;3.47;;;1.88;;
38779;SDS011;29273;49.962;9.768;2023-10-08T08:57:43;3.50;;;1.90;;
38779;SDS011;29273;49.962;9.768;2023-10-08T09:00:13;2.65;;;1.90;;
38779;SDS011;29273;49.962;9.768;2023-10-08T09:02:40;2.42;;;1.80;;
38779;SDS011;29273;49.962;9.768;2023-10-08T09:05:06;2.83;;;1.77;;
38779;SDS011;29273;49.962;9.768;2023-10-08T09:08:00;4.18;;;1.92;;
38779;SDS011;29273;49.962;9.768;2023-10-08T09:10:30;2.65;;;1.52;;
38779;SDS011;29273;49.962;9.768;2023-10-08T09:15:29;2.70;;;1.73;;
38779;SDS011;29273;49.962;9.768;2023-10-08T09:17:55;4.22;;;2.17;;
38779;SDS011;29273;49.962;9.768;2023-10-08T09:20:22;3.80;;;1.70;;
38779;SDS011;29273;49.962;9.768;2023-10-08T09:25:33;3.65;;;2.33;;
38779;SDS011;29273;49.962;9.768;2023-10-08T09:27:59;3.42;;;2.05;;
38779;SDS011;29273;49.962;9.768;2023-10-08T09:30:25;2.22;;;1.60;;
38779;SDS011;29273;49.962;9.768;2023-10-08T09:32:51;2.83;;;2.00;;
38779;SDS011;29273;49.962;9.768;2023-10-08T09:35:17;3.53;;;1.90;;
38779;SDS011;29273;49.962;9.768;2023-10-08T09:37:44;2.70;;;2.05;;
38779;SDS011;29273;49.962;9.768;2023-10-08T09:40:10;2.95;;;1.90;;
38779;SDS011;29273;49.962;9.768;2023-10-08T09:42:37;4.72;;;2.30;;
38779;SDS011;29273;49.962;9.768;2023-10-08T09:45:04;3.33;;;2.03;;
38779;SDS011;29273;49.962;9.768;2023-10-08T09:47:31;2.42;;;1.77;;
38779;SDS011;29273;49.962;9.768;2023-10-08T09:50:03;3.17;;;1.77;;
38779;SDS011;29273;49.962;9.768;2023-10-08T09:52:42;2.22;;;1.80;;
38779;SDS011;29273;49.962;9.768;2023-10-08T09:55:21;2.80;;;1.73;;
38779;SDS011;29273;49.962;9.768;2023-10-08T09:57:48;2.60;;;1.83;;
38779;SDS011;29273;49.962;9.768;2023-10-08T10:00:16;3.05;;;1.88;;
38779;SDS011;29273;49.962;9.768;2023-10-08T10:02:54;3.85;;;2.03;;
38779;SDS011;29273;49.962;9.768;2023-10-08T10:05:21;4.80;;;2.25;;
38779;SDS011;29273;49.962;9.768;2023-10-08T10:07:49;2.38;;;1.80;;
38779;SDS011;29273;49.962;9.768;2023-10-08T10:12:59;3.35;;;2.13;;
38779;SDS011;29273;49.962;9.768;2023-10-08T10:15:25;4.35;;;2.30;;
38779;SDS011;29273;49.962;9.768;2023-10-08T10:17:51;4.07;;;2.40;;
38779;SDS011;29273;49.962;9.768;2023-10-08T10:20:17;2.67;;;1.90;;
38779;SDS011;29273;49.962;9.768;2023-10-08T10:22:45;3.75;;;2.30;;
38779;SDS011;29273;49.962;9.768;2023-10-08T10:25:11;3.75;;;2.10;;
38779;SDS011;29273;49.962;9.768;2023-10-08T10:30:21;3.72;;;2.00;;
38779;SDS011;29273;49.962;9.768;2023-10-08T10:32:51;2.97;;;1.90;;
38779;SDS011;29273;49.962;9.768;2023-10-08T10:35:17;3.28;;;1.90;;
38779;SDS011;29273;49.962;9.768;2023-10-08T10:37:45;3.53;;;1.90;;
38779;SDS011;29273;49.962;9.768;2023-10-08T10:40:22;3.10;;;2.33;;
38779;SDS011;29273;49.962;9.768;2023-10-08T10:42:57;3.42;;;1.88;;
38779;SDS011;29273;49.962;9.768;2023-10-08T10:45:28;3.58;;;2.20;;
38779;SDS011;29273;49.962;9.768;2023-10-08T10:48:07;3.95;;;2.10;;
38779;SDS011;29273;49.962;9.768;2023-10-08T10:51:02;2.88;;;2.00;;
38779;SDS011;29273;49.962;9.768;2023-10-08T10:53:34;3.53;;;2.13;;
38779;SDS011;29273;49.962;9.768;2023-10-08T10:56:19;2.95;;;2.00;;
38779;SDS011;29273;49.962;9.768;2023-10-08T10:58:47;2.53;;;2.15;;
38779;SDS011;29273;49.962;9.768;2023-10-08T11:01:22;4.15;;;2.83;;
38779;SDS011;29273;49.962;9.768;2023-10-08T11:03:51;3.95;;;2.47;;
38779;SDS011;29273;49.962;9.768;2023-10-08T11:06:21;3.70;;;2.78;;
38779;SDS011;29273;49.962;9.768;2023-10-08T11:08:51;3.53;;;2.45;;
38779;SDS011;29273;49.962;9.768;2023-10-08T11:11:18;3.38;;;2.40;;
38779;SDS011;29273;49.962;9.768;2023-10-08T11:13:44;7.35;;;3.58;;
38779;SDS011;29273;49.962;9.768;2023-10-08T11:16:17;5.22;;;3.42;;
38779;SDS011;29273;49.962;9.768;2023-10-08T11:18:45;6.00;;;3.60;;
38779;SDS011;29273;49.962;9.768;2023-10-08T11:21:16;5.57;;;2.83;;
38779;SDS011;29273;49.962;9.768;2023-10-08T11:23:46;4.43;;;2.85;;
38779;SDS011;29273;49.962;9.768;2023-10-08T11:26:18;4.90;;;3.63;;
38779;SDS011;29273;49.962;9.768;2023-10-08T11:28:44;9.32;;;7.50;;
38779;SDS011;29273;49.962;9.768;2023-10-08T11:31:13;7.38;;;4.93;;
38779;SDS011;29273;49.962;9.768;2023-10-08T11:33:45;5.05;;;3.50;;
38779;SDS011;29273;49.962;9.768;2023-10-08T11:36:20;4.85;;;3.20;;
38779;SDS011;29273;49.962;9.768;2023-10-08T11:38:56;3.97;;;2.90;;
38779;SDS011;29273;49.962;9.768;2023-10-08T11:41:26;5.55;;;2.40;;
38779;SDS011;29273;49.962;9.768;2023-10-08T11:43:55;3.50;;;2.30;;
38779;SDS011;29273;49.962;9.768;2023-10-08T11:46:23;5.57;;;3.60;;
38779;SDS011;29273;49.962;9.768;2023-10-08T11:48:51;4.10;;;2.90;;
38779;SDS011;29273;49.962;9.768;2023-10-08T11:51:17;3.92;;;2.85;;
38779;SDS011;29273;49.962;9.768;2023-10-08T11:53:43;3.88;;;2.72;;
38779;SDS011;29273;49.962;9.768;2023-10-08T11:56:12;5.15;;;2.50;;
38779;SDS011;29273;49.962;9.768;2023-10-08T11:58:41;4.28;;;2.60;;
38779;SDS011;29273;49.962;9.768;2023-10-08T12:01:12;4.05;;;2.45;;
38779;SDS011;29273;49.962;9.768;2023-10-08T12:03:44;3.55;;;2.30;;
38779;SDS011;29273;49.962;9.768;2023-10-08T12:06:11;4.82;;;2.17;;
38779;SDS011;29273;49.962;9.768;2023-10-08T12:08:47;2.38;;;1.95;;
38779;SDS011;29273;49.962;9.768;2023-10-08T12:11:18;2.83;;;2.30;;
38779;SDS011;29273;49.962;9.768;2023-10-08T12:13:44;4.13;;;2.20;;
38779;SDS011;29273;49.962;9.768;2023-10-08T12:16:11;3.50;;;2.28;;
38779;SDS011;29273;49.962;9.768;2023-10-08T12:18:43;3.35;;;2.25;;
38779;SDS011;29273;49.962;9.768;2023-10-08T12:21:09;3.20;;;2.22;;
38779;SDS011;29273;49.962;9.768;2023-10-08T12:23:40;4.00;;;2.65;;
38779;SDS011;29273;49.962;9.768;2023-10-08T12:26:08;5.18;;;2.53;;
38779;SDS011;29273;49.962;9.768;2023-10-08T12:28:34;4.22;;;2.30;;
38779;SDS011;29273;49.962;9.768;2023-10-08T12:31:02;4.72;;;2.47;;
38779;SDS011;29273;49.962;9.768;2023-10-08T12:33:29;3.90;;;2.70;;
38779;SDS011;29273;49.962;9.768;2023-10-08T12:35:56;5.00;;;3.00;;
38779;SDS011;29273;49.962;9.768;2023-10-08T12:38:23;5.28;;;2.53;;
38779;SDS011;29273;49.962;9.768;2023-10-08T12:40:49;5.07;;;2.95;;
38779;SDS011;29273;49.962;9.768;2023-10-08T12:43:24;3.45;;;2.45;;
38779;SDS011;29273;49.962;9.768;2023-10-08T12:45:53;4.50;;;2.42;;
38779;SDS011;29273;49.962;9.768;2023-10-08T12:50:49;4.68;;;2.60;;
38779;SDS011;29273;49.962;9.768;2023-10-08T12:53:21;5.97;;;3.28;;
38779;SDS011;29273;49.962;9.768;2023-10-08T12:55:55;3.90;;;2.63;;
38779;SDS011;29273;49.962;9.768;2023-10-08T12:58:23;3.33;;;2.45;;
38779;SDS011;29273;49.962;9.768;2023-10-08T13:00:55;4.22;;;2.47;;
38779;SDS011;29273;49.962;9.768;2023-10-08T13:03:26;4.80;;;2.58;;
38779;SDS011;29273;49.962;9.768;2023-10-08T13:05:56;4.82;;;3.08;;
38779;SDS011;29273;49.962;9.768;2023-10-08T13:08:32;4.30;;;2.78;;
38779;SDS011;29273;49.962;9.768;2023-10-08T13:11:01;5.53;;;3.13;;
38779;SDS011;29273;49.962;9.768;2023-10-08T13:13:27;6.47;;;4.22;;
38779;SDS011;29273;49.962;9.768;2023-10-08T13:15:54;7.38;;;4.10;;
38779;SDS011;29273;49.962;9.768;2023-10-08T13:18:24;6.50;;;3.85;;
38779;SDS011;29273;49.962;9.768;2023-10-08T13:20:52;5.40;;;3.63;;
38779;SDS011;29273;49.962;9.768;2023-10-08T13:23:18;6.40;;;3.10;;
38779;SDS011;29273;49.962;9.768;2023-10-08T13:25:52;5.93;;;3.50;;
38779;SDS011;29273;49.962;9.768;2023-10-08T13:28:23;5.88;;;3.47;;
38779;SDS011;29273;49.962;9.768;2023-10-08T13:30:52;4.57;;;3.10;;
38779;SDS011;29273;49.962;9.768;2023-10-08T13:33:26;4.65;;;3.65;;
38779;SDS011;29273;49.962;9.768;2023-10-08T13:35:53;3.88;;;2.85;;
38779;SDS011;29273;49.962;9.768;2023-10-08T13:38:20;4.85;;;3.17;;
38779;SDS011;29273;49.962;9.768;2023-10-08T13:40:46;4.60;;;2.92;;
38779;SDS011;29273;49.962;9.768;2023-10-08T13:43:28;4.15;;;2.78;;
38779;SDS011;29273;49.962;9.768;2023-10-08T13:46:05;4.53;;;2.80;;
38779;SDS011;29273;49.962;9.768;2023-10-08T13:48:34;3.67;;;2.83;;
38779;SDS011;29273;49.962;9.768;2023-10-08T13:51:01;4.03;;;3.15;;
38779;SDS011;29273;49.962;9.768;2023-10-08T13:53:31;5.57;;;3.30;;
38779;SDS011;29273;49.962;9.768;2023-10-08T13:56:00;4.25;;;2.83;;
38779;SDS011;29273;49.962;9.768;2023-10-08T13:58:26;5.78;;;3.08;;
38779;SDS011;29273;49.962;9.768;2023-10-08T14:00:55;4.18;;;2.75;;
38779;SDS011;29273;49.962;9.768;2023-10-08T14:03:28;3.95;;;2.85;;
38779;SDS011;29273;49.962;9.768;2023-10-08T14:05:57;4.72;;;3.10;;
38779;SDS011;29273;49.962;9.768;2023-10-08T14:08:28;4.30;;;2.70;;
38779;SDS011;29273;49.962;9.768;2023-10-08T14:10:54;4.38;;;2.90;;
38779;SDS011;29273;49.962;9.768;2023-10-08T14:13:25;4.57;;;3.10;;
38779;SDS011;29273;49.962;9.768;2023-10-08T14:15:52;4.05;;;2.67;;
38779;SDS011;29273;49.962;9.768;2023-10-08T14:18:24;7.00;;;3.38;;
38779;SDS011;29273;49.962;9.768;2023-10-08T14:20:54;4.40;;;3.08;;
38779;SDS011;29273;49.962;9.768;2023-10-08T14:23:23;4.45;;;2.83;;
38779;SDS011;29273;49.962;9.768;2023-10-08T14:25:53;4.55;;;3.00;;
38779;SDS011;29273;49.962;9.768;2023-10-08T14:28:28;4.78;;;3.08;;
38779;SDS011;29273;49.962;9.768;2023-10-08T14:31:09;5.95;;;2.67;;
38779;SDS011;29273;49.962;9.768;2023-10-08T14:33:41;3.88;;;2.78;;
38779;SDS011;29273;49.962;9.768;2023-10-08T14:36:09;3.83;;;2.80;;
38779;SDS011;29273;49.962;9.768;2023-10-08T14:38:54;3.65;;;2.60;;
38779;SDS011;29273;49.962;9.768;2023-10-08T14:41:38;4.40;;;2.60;;
38779;SDS011;29273;49.962;9.768;2023-10-08T14:44:22;3.78;;;2.97;;
38779;SDS011;29273;49.962;9.768;2023-10-08T14:46:48;4.70;;;2.90;;
38779;SDS011;29273;49.962;9.768;2023-10-08T14:49:15;4.95;;;2.80;;
38779;SDS011;29273;49.962;9.768;2023-10-08T14:51:41;7.50;;;4.00;;
38779;SDS011;29273;49.962;9.768;2023-10-08T14:54:08;6.10;;;4.30;;
38779;SDS011;29273;49.962;9.768;2023-10-08T14:56:37;5.95;;;4.15;;
38779;SDS011;29273;49.962;9.768;2023-10-08T14:59:04;5.57;;;3.95;;
38779;SDS011;29273;49.962;9.768;2023-10-08T15:01:30;23.20;;;14.88;;
38779;SDS011;29273;49.962;9.768;2023-10-08T15:03:58;22.73;;;13.65;;
38779;SDS011;29273;49.962;9.768;2023-10-08T15:06:30;17.90;;;12.13;;
38779;SDS011;29273;49.962;9.768;2023-10-08T15:08:57;13.23;;;9.18;;
38779;SDS011;29273;49.962;9.768;2023-10-08T15:11:23;13.43;;;6.85;;
38779;SDS011;29273;49.962;9.768;2023-10-08T15:13:50;10.13;;;7.20;;
38779;SDS011;29273;49.962;9.768;2023-10-08T15:16:19;6.38;;;4.50;;
38779;SDS011;29273;49.962;9.768;2023-10-08T15:18:50;5.38;;;3.60;;
38779;SDS011;29273;49.962;9.768;2023-10-08T15:21:16;3.72;;;2.72;;
38779;SDS011;29273;49.962;9.768;2023-10-08T15:23:43;3.35;;;2.15;;
38779;SDS011;29273;49.962;9.768;2023-10-08T15:26:11;2.78;;;2.10;;
38779;SDS011;29273;49.962;9.768;2023-10-08T15:28:37;2.55;;;1.90;;
38779;SDS011;29273;49.962;9.768;2023-10-08T15:31:04;2.45;;;2.25;;
38779;SDS011;29273;49.962;9.768;2023-10-08T15:33:30;4.18;;;2.20;;
38779;SDS011;29273;49.962;9.768;2023-10-08T15:35:56;2.47;;;1.80;;
38779;SDS011;29273;49.962;9.768;2023-10-08T15:38:22;1.88;;;1.70;;